Weather History for KT82 - November, 2012

Change the Weather History Date:

Friday, November 9, 2012

  Actual Average (KSAT) Record (KSAT)
Temperature  
Mean Temperature 70 °F 64 °F  
Max Temperature 78 °F 75 °F 89 °F (1988)
Min Temperature 63 °F 53 °F 29 °F (1991)
Degree Days  
Heating Degree Days 0 4  
Month to date heating degree days 31  
Since 1 July heating degree days 64  
Cooling Degree Days 6 3  
Month to date cooling degree days 31  
Year to date cooling degree days 3086  
Growing Degree Days 20 (Base 50)    
Moisture  
Dew Point 59 °F    
Average Humidity 71    
Maximum Humidity 91    
Minimum Humidity 45    
Precipitation  
Precipitation 0.00 in 0.08 in 1.56 in (1895)
Month to date precipitation 0.80  
Year to date precipitation 28.88  
Snow  
Snow 0.00 in - - ()
Month to date snowfall  
Since 1 July snowfall  
Since 1 September snowfall  
Snow Depth -    
Sea Level Pressure  
Sea Level Pressure 30.03 in    
Wind  
Wind Speed 12 mph (South)    
Max Wind Speed 21 mph    
Max Gust Speed 30 mph    
Visibility 10 miles    
Events      
T = Trace of Precipitation, MM = Missing Value Source: NWS Daily Summary

Daily Weather History Graph

Daily Weather History Graph

Search for Another Location

Airport or City:

Trip Planner

Search our weather history database for the weather conditions in past years. The results will help you decide how hot, cold, wet, or windy it might be!

Date:

Astronomy

Nov. 09, 2012 Rise Set
Actual Time 6:56 AM CST 5:42 PM CST
Civil Twilight 6:31 AM CST 6:07 PM CST
Nautical Twilight 6:02 AM CST 6:35 PM CST
Astronomical Twilight 5:34 AM CST 7:04 PM CST
Moon 2:16 AM CST (11/9) 2:39 PM CST (11/9)
Length of Visible Light 11h 35m
Length of Day
10h 45m
Waning Crescent, 23% of the Moon is Illuminated
Nov 9
Waning Crescent
Nov 13
New
Nov 20
First Quarter
Nov 28
Full
Dec 6
Last Quarter

Hourly Weather History & Observations

Time (CST) Temp. Dew Point Humidity Pressure Visibility Wind Dir Wind Speed Gust Speed Precip Events Conditions
12:15 AM 64.4 °F 61.7 °F 91% 30.06 in 10.0 mi South 6.9 mph - N/A   Overcast
12:35 AM 64.8 °F 61.7 °F 90% 30.06 in 10.0 mi South 12.7 mph 18.4 mph N/A   Overcast
12:55 AM 65.1 °F 61.3 °F 88% 30.06 in 10.0 mi South 9.2 mph 23.0 mph N/A   Overcast
1:15 AM 64.6 °F 60.8 °F 88% 30.06 in 10.0 mi South 13.8 mph 18.4 mph N/A   Overcast
1:35 AM 64.0 °F 60.1 °F 87% 30.06 in 10.0 mi South 10.4 mph 16.1 mph N/A   Scattered Clouds
1:55 AM 63.9 °F 60.1 °F 87% 30.06 in 10.0 mi South 12.7 mph 18.4 mph N/A   Scattered Clouds
2:15 AM 64.0 °F 60.3 °F 87% 30.06 in 10.0 mi South 6.9 mph 17.3 mph N/A   Scattered Clouds
2:35 AM 64.4 °F 60.3 °F 86% 30.06 in 10.0 mi South 9.2 mph 17.3 mph N/A   Mostly Cloudy
2:55 AM 64.8 °F 60.3 °F 85% 30.05 in 10.0 mi SSW 11.5 mph 17.3 mph N/A   Overcast
3:15 AM 64.8 °F 60.1 °F 85% 30.05 in 10.0 mi South 13.8 mph 21.9 mph N/A   Mostly Cloudy
3:35 AM 64.6 °F 59.9 °F 85% 30.04 in 10.0 mi South 12.7 mph 20.7 mph N/A   Mostly Cloudy
3:55 AM 64.4 °F 59.9 °F 85% 30.04 in 10.0 mi South 10.4 mph - N/A   Mostly Cloudy
4:15 AM 64.4 °F 60.1 °F 86% 30.04 in 10.0 mi South 9.2 mph - N/A   Mostly Cloudy
4:35 AM 65.1 °F 60.3 °F 84% 30.04 in 10.0 mi South 8.1 mph 20.7 mph N/A   Overcast
4:55 AM 64.8 °F 60.3 °F 85% 30.05 in 10.0 mi SSW 11.5 mph 18.4 mph N/A   Overcast
5:15 AM 64.6 °F 60.1 °F 85% 30.04 in 10.0 mi South 9.2 mph 17.3 mph N/A   Mostly Cloudy
5:35 AM 64.4 °F 60.1 °F 86% 30.04 in 10.0 mi SSW 9.2 mph 16.1 mph N/A   Mostly Cloudy
5:55 AM 64.6 °F 60.1 °F 85% 30.04 in 10.0 mi SSW 10.4 mph - N/A   Overcast
6:15 AM 64.6 °F 60.1 °F 85% 30.04 in 10.0 mi SSW 12.7 mph 21.9 mph N/A   Overcast
6:35 AM 64.6 °F 60.3 °F 86% 30.05 in 10.0 mi South 9.2 mph - N/A   Overcast
6:55 AM 64.8 °F 60.3 °F 85% 30.05 in 10.0 mi SSW 9.2 mph - N/A   Overcast
7:15 AM 64.8 °F 60.1 °F 85% 30.06 in 10.0 mi SSW 12.7 mph 18.4 mph N/A   Overcast
7:35 AM 64.9 °F 59.9 °F 84% 30.06 in 10.0 mi SSW 16.1 mph 20.7 mph N/A   Overcast
7:55 AM 64.9 °F 59.9 °F 84% 30.07 in 10.0 mi SSW 10.4 mph 18.4 mph N/A   Mostly Cloudy
8:15 AM 65.8 °F 60.1 °F 82% 30.07 in 10.0 mi South 12.7 mph 20.7 mph N/A   Mostly Cloudy
8:55 AM 66.6 °F 60.1 °F 80% 30.09 in 10.0 mi South 20.7 mph 27.6 mph N/A   Mostly Cloudy
9:15 AM 67.5 °F 60.4 °F 78% 30.09 in 10.0 mi South 13.8 mph 24.2 mph N/A   Overcast
9:35 AM 67.8 °F 60.4 °F 77% 30.09 in 10.0 mi South 13.8 mph 20.7 mph N/A   Overcast
9:55 AM 68.4 °F 60.1 °F 75% 30.09 in 10.0 mi South 20.7 mph 26.5 mph N/A   Overcast
10:15 AM 69.6 °F 60.6 °F 73% 30.09 in 10.0 mi SSW 15.0 mph 25.3 mph N/A   Mostly Cloudy
10:35 AM 70.5 °F 61.0 °F 72% 30.09 in 10.0 mi SSW 16.1 mph 27.6 mph N/A   Mostly Cloudy
10:55 AM 71.1 °F 60.8 °F 70% 30.08 in 10.0 mi South 15.0 mph 27.6 mph N/A   Scattered Clouds
11:15 AM 72.0 °F 59.5 °F 65% 30.07 in 10.0 mi South 18.4 mph 27.6 mph N/A   Scattered Clouds
11:35 AM 73.6 °F 59.5 °F 61% 30.06 in 10.0 mi SSW 18.4 mph 24.2 mph N/A   Clear
11:55 AM 73.9 °F 58.3 °F 58% 30.06 in 10.0 mi SSW 19.6 mph 29.9 mph N/A   Clear
12:15 PM 74.7 °F 59.0 °F 58% 30.05 in 10.0 mi South 17.3 mph 23.0 mph N/A   Clear
12:35 PM 75.4 °F 57.6 °F 54% 30.04 in 10.0 mi South 19.6 mph - N/A   Clear
12:55 PM 76.1 °F 57.4 °F 52% 30.02 in 10.0 mi South 19.6 mph 23.0 mph N/A   Clear
1:15 PM 76.6 °F 57.4 °F 51% 30.01 in 10.0 mi South 19.6 mph 28.8 mph N/A   Clear
1:35 PM 77.0 °F 57.4 °F 51% 29.99 in 10.0 mi South 15.0 mph 23.0 mph N/A   Clear
1:55 PM 77.2 °F 56.3 °F 48% 29.99 in 10.0 mi South 16.1 mph 28.8 mph N/A   Clear
2:15 PM 77.9 °F 56.7 °F 48% 29.98 in 10.0 mi South 19.6 mph 27.6 mph N/A   Clear
2:35 PM 77.9 °F 55.8 °F 46% 29.98 in 10.0 mi South 17.3 mph 25.3 mph N/A   Clear
2:55 PM 78.4 °F 56.1 °F 46% 29.97 in 10.0 mi South 17.3 mph 25.3 mph N/A   Clear
3:15 PM 77.9 °F 55.0 °F 45% 29.97 in 10.0 mi South 17.3 mph 24.2 mph N/A   Clear
3:35 PM 77.9 °F 55.9 °F 47% 29.97 in 10.0 mi South 12.7 mph 19.6 mph N/A   Clear
3:55 PM 77.4 °F 55.4 °F 47% 29.97 in 10.0 mi South 16.1 mph 23.0 mph N/A   Clear
4:15 PM 77.2 °F 55.8 °F 47% 29.97 in 10.0 mi South 16.1 mph 21.9 mph N/A   Clear
4:35 PM 76.5 °F 56.3 °F 50% 29.97 in 10.0 mi South 13.8 mph 21.9 mph N/A   Clear
4:55 PM 75.7 °F 55.8 °F 50% 29.97 in 10.0 mi South 16.1 mph 24.2 mph N/A   Clear
5:15 PM 75.2 °F 55.8 °F 51% 29.98 in 10.0 mi SSE 10.4 mph 18.4 mph N/A   Clear
5:35 PM 74.1 °F 56.1 °F 53% 29.98 in 10.0 mi SSE 4.6 mph - N/A   Clear
5:55 PM 73.2 °F 55.9 °F 55% 29.98 in 10.0 mi South 6.9 mph - N/A   Clear
6:15 PM 72.0 °F 56.1 °F 57% 29.99 in 10.0 mi SE 5.8 mph - N/A   Clear
6:35 PM 71.1 °F 56.3 °F 60% 29.99 in 10.0 mi SE 4.6 mph - N/A   Clear
6:55 PM 70.7 °F 56.3 °F 60% 29.99 in 10.0 mi SE 4.6 mph - N/A   Clear
7:15 PM 70.7 °F 56.3 °F 60% 30.00 in 10.0 mi SE 6.9 mph - N/A   Clear
7:35 PM 70.7 °F 55.8 °F 59% 30.01 in 10.0 mi SSE 8.1 mph - N/A   Clear
7:55 PM 70.0 °F 56.3 °F 62% 30.01 in 10.0 mi SSE 8.1 mph - N/A   Clear
8:15 PM 69.6 °F 57.0 °F 64% 30.02 in 10.0 mi SSE 9.2 mph - N/A   Clear
8:35 PM 68.9 °F 57.4 °F 67% 30.02 in 10.0 mi SSE 10.4 mph 16.1 mph N/A   Clear
8:55 PM 68.2 °F 57.9 °F 70% 30.03 in 10.0 mi SSE 10.4 mph 19.6 mph N/A   Clear
9:15 PM 67.6 °F 58.1 °F 71% 30.04 in 10.0 mi SSE 9.2 mph - N/A   Clear
9:35 PM 67.1 °F 58.5 °F 74% 30.04 in 10.0 mi SSE 10.4 mph 16.1 mph N/A   Clear
9:55 PM 66.4 °F 58.8 °F 77% 30.04 in 10.0 mi SSE 9.2 mph 17.3 mph N/A   Clear
10:15 PM 66.2 °F 59.0 °F 78% 30.04 in 10.0 mi SSE 8.1 mph - N/A   Clear
10:35 PM 65.3 °F 59.0 °F 80% 30.05 in 10.0 mi SSE 6.9 mph - N/A   Clear
10:55 PM 64.6 °F 59.2 °F 83% 30.05 in 10.0 mi SSE 10.4 mph - N/A   Clear
11:15 PM 64.6 °F 59.9 °F 85% 30.04 in 10.0 mi SSE 8.1 mph 16.1 mph N/A   Clear
11:35 PM 64.4 °F 60.4 °F 87% 30.05 in 10.0 mi South 10.4 mph 17.3 mph N/A   Scattered Clouds
11:55 PM 64.4 °F 60.4 °F 87% 30.04 in 10.0 mi SSE 8.1 mph 16.1 mph N/A   Mostly Cloudy